Mc Call Creek, Mississippi
Current Conditions -  °F | °C
As of 10:53 AM on Monday 22 Dec 2014 (Local Time) from KMCB Reporting Station
Haze Haze  
Wind Chill: 61°   Ceiling: 200
Heat Index: 61°   Visibility: 3mi
Dew Point: 60°   Wind: 7mph
Humidity: 97%   Direction: 140°SE
Pressure: 29.79"   Gusts: NA
Location:  31.5295°N, 90.7634°W
Report Text: KMCB 221653Z AUTO 14006KT 3SM BR OVC002 16/16 A2979 RMK AO2 SLP085 T01610156
Loading
Personal Weather Stations






























Interactive Weather Map New forecast layout! Learn more

10-Day Weather Forecast

Advertisements
Track Severe Weather on mobile